sensor_id;sensor_type;location;lat;lon;timestamp;P1;P2;P0
35654;PMS1003;21773;50.010;19.972;2023-02-15T00:02:54;27.00;26.00;20.00
35654;PMS1003;21773;50.010;19.972;2023-02-15T00:05:58;29.75;26.75;22.00
35654;PMS1003;21773;50.010;19.972;2023-02-15T00:09:02;29.00;27.00;21.50
35654;PMS1003;21773;50.010;19.972;2023-02-15T00:12:06;31.50;26.50;21.50
35654;PMS1003;21773;50.010;19.972;2023-02-15T00:15:11;28.00;23.60;20.00
35654;PMS1003;21773;50.010;19.972;2023-02-15T00:18:14;27.75;25.00;21.50
35654;PMS1003;21773;50.010;19.972;2023-02-15T00:21:18;30.00;28.00;22.00
35654;PMS1003;21773;50.010;19.972;2023-02-15T00:24:21;30.40;29.40;22.00
35654;PMS1003;21773;50.010;19.972;2023-02-15T00:27:24;37.50;31.50;24.50
35654;PMS1003;21773;50.010;19.972;2023-02-15T00:30:29;31.50;28.50;22.00
35654;PMS1003;21773;50.010;19.972;2023-02-15T00:33:35;37.25;32.75;25.25
35654;PMS1003;21773;50.010;19.972;2023-02-15T00:36:39;35.00;31.00;23.50
35654;PMS1003;21773;50.010;19.972;2023-02-15T00:39:42;33.40;29.00;23.00
35654;PMS1003;21773;50.010;19.972;2023-02-15T00:42:45;29.50;29.00;22.00
35654;PMS1003;21773;50.010;19.972;2023-02-15T00:45:50;28.75;26.00;20.75
35654;PMS1003;21773;50.010;19.972;2023-02-15T00:48:54;34.40;31.00;23.40
35654;PMS1003;21773;50.010;19.972;2023-02-15T00:51:57;30.00;27.50;22.00
35654;PMS1003;21773;50.010;19.972;2023-02-15T00:55:01;32.50;28.75;22.00
35654;PMS1003;21773;50.010;19.972;2023-02-15T00:58:05;31.80;29.60;23.00
35654;PMS1003;21773;50.010;19.972;2023-02-15T01:01:10;29.00;27.00;22.00
35654;PMS1003;21773;50.010;19.972;2023-02-15T01:04:14;35.50;30.50;23.00
35654;PMS1003;21773;50.010;19.972;2023-02-15T01:07:18;28.60;25.60;21.60
35654;PMS1003;21773;50.010;19.972;2023-02-15T01:10:21;34.40;30.40;24.00
35654;PMS1003;21773;50.010;19.972;2023-02-15T01:13:25;31.25;29.00;22.25
35654;PMS1003;21773;50.010;19.972;2023-02-15T01:16:30;37.40;32.00;24.00
35654;PMS1003;21773;50.010;19.972;2023-02-15T01:19:33;27.20;25.00;21.00
35654;PMS1003;21773;50.010;19.972;2023-02-15T01:22:37;38.50;31.00;24.00
35654;PMS1003;21773;50.010;19.972;2023-02-15T01:25:41;30.60;28.60;23.00
35654;PMS1003;21773;50.010;19.972;2023-02-15T01:28:44;30.60;30.00;23.00
35654;PMS1003;21773;50.010;19.972;2023-02-15T01:31:51;32.00;28.60;22.00
35654;PMS1003;21773;50.010;19.972;2023-02-15T01:34:55;34.00;30.00;23.00
35654;PMS1003;21773;50.010;19.972;2023-02-15T01:37:58;35.00;30.00;24.00
35654;PMS1003;21773;50.010;19.972;2023-02-15T01:41:02;32.40;30.00;23.00
35654;PMS1003;21773;50.010;19.972;2023-02-15T01:48:02;32.00;29.00;23.00
35654;PMS1003;21773;50.010;19.972;2023-02-15T01:51:07;35.00;31.00;23.00
35654;PMS1003;21773;50.010;19.972;2023-02-15T01:54:16;35.00;30.40;23.00
35654;PMS1003;21773;50.010;19.972;2023-02-15T01:57:26;31.50;29.00;23.00
35654;PMS1003;21773;50.010;19.972;2023-02-15T02:00:31;31.33;29.33;23.00
35654;PMS1003;21773;50.010;19.972;2023-02-15T02:03:38;27.40;25.00;20.60
35654;PMS1003;21773;50.010;19.972;2023-02-15T02:06:48;28.60;27.00;21.60
35654;PMS1003;21773;50.010;19.972;2023-02-15T02:09:54;30.25;27.25;22.00
35654;PMS1003;21773;50.010;19.972;2023-02-15T02:12:58;30.50;28.00;22.00
35654;PMS1003;21773;50.010;19.972;2023-02-15T02:16:08;34.00;30.25;24.00
35654;PMS1003;21773;50.010;19.972;2023-02-15T02:19:41;29.75;27.75;22.00
35654;PMS1003;21773;50.010;19.972;2023-02-15T02:23:18;28.80;26.00;21.80
35654;PMS1003;21773;50.010;19.972;2023-02-15T02:26:44;33.00;29.00;23.00
35654;PMS1003;21773;50.010;19.972;2023-02-15T02:30:20;29.20;27.20;22.00
35654;PMS1003;21773;50.010;19.972;2023-02-15T02:33:41;27.60;24.40;20.00
35654;PMS1003;21773;50.010;19.972;2023-02-15T02:36:58;26.33;25.00;20.00
35654;PMS1003;21773;50.010;19.972;2023-02-15T02:40:08;33.00;28.00;22.25
35654;PMS1003;21773;50.010;19.972;2023-02-15T02:43:21;29.00;27.00;22.00
35654;PMS1003;21773;50.010;19.972;2023-02-15T02:46:33;29.75;26.25;21.25
35654;PMS1003;21773;50.010;19.972;2023-02-15T02:49:44;32.40;27.00;22.00
35654;PMS1003;21773;50.010;19.972;2023-02-15T02:52:48;30.40;28.80;23.00
35654;PMS1003;21773;50.010;19.972;2023-02-15T02:55:53;30.00;27.00;22.00
35654;PMS1003;21773;50.010;19.972;2023-02-15T02:59:00;30.00;27.25;22.00
35654;PMS1003;21773;50.010;19.972;2023-02-15T03:02:10;29.00;27.40;22.00
35654;PMS1003;21773;50.010;19.972;2023-02-15T03:05:21;31.40;29.00;23.00
35654;PMS1003;21773;50.010;19.972;2023-02-15T03:08:30;30.80;27.20;22.20
35654;PMS1003;21773;50.010;19.972;2023-02-15T03:11:38;31.60;28.80;22.60
35654;PMS1003;21773;50.010;19.972;2023-02-15T03:14:41;32.50;29.00;22.00
35654;PMS1003;21773;50.010;19.972;2023-02-15T03:17:48;28.00;26.00;21.50
35654;PMS1003;21773;50.010;19.972;2023-02-15T03:21:00;32.00;26.75;21.75
35654;PMS1003;21773;50.010;19.972;2023-02-15T03:24:07;29.60;29.00;22.00
35654;PMS1003;21773;50.010;19.972;2023-02-15T03:27:17;32.40;30.00;23.00
35654;PMS1003;21773;50.010;19.972;2023-02-15T03:30:25;28.60;26.40;21.20
35654;PMS1003;21773;50.010;19.972;2023-02-15T03:33:33;32.25;30.00;23.00
35654;PMS1003;21773;50.010;19.972;2023-02-15T03:36:45;34.00;30.00;24.00
35654;PMS1003;21773;50.010;19.972;2023-02-15T03:39:58;35.60;31.00;23.00
35654;PMS1003;21773;50.010;19.972;2023-02-15T03:43:27;36.75;30.25;23.00
35654;PMS1003;21773;50.010;19.972;2023-02-15T03:46:37;35.00;30.80;24.00
35654;PMS1003;21773;50.010;19.972;2023-02-15T03:49:48;35.40;30.00;23.00
35654;PMS1003;21773;50.010;19.972;2023-02-15T03:52:58;34.00;29.00;22.40
35654;PMS1003;21773;50.010;19.972;2023-02-15T03:56:03;31.50;30.00;23.00
35654;PMS1003;21773;50.010;19.972;2023-02-15T03:59:07;32.60;29.00;23.00
35654;PMS1003;21773;50.010;19.972;2023-02-15T04:02:29;28.20;27.00;21.80
35654;PMS1003;21773;50.010;19.972;2023-02-15T04:05:38;35.50;29.75;22.75
35654;PMS1003;21773;50.010;19.972;2023-02-15T04:08:43;36.80;31.20;24.00
35654;PMS1003;21773;50.010;19.972;2023-02-15T04:12:05;29.80;29.00;22.40
35654;PMS1003;21773;50.010;19.972;2023-02-15T04:15:11;31.00;28.80;22.00
35654;PMS1003;21773;50.010;19.972;2023-02-15T04:18:32;33.00;29.00;23.00
35654;PMS1003;21773;50.010;19.972;2023-02-15T04:21:55;31.80;27.40;22.00
35654;PMS1003;21773;50.010;19.972;2023-02-15T04:25:18;31.40;29.40;22.40
35654;PMS1003;21773;50.010;19.972;2023-02-15T04:28:21;31.40;27.00;22.00
35654;PMS1003;21773;50.010;19.972;2023-02-15T04:31:24;29.00;27.00;20.00
35654;PMS1003;21773;50.010;19.972;2023-02-15T04:34:28;28.00;26.00;20.00
35654;PMS1003;21773;50.010;19.972;2023-02-15T04:37:32;24.20;22.00;18.80
35654;PMS1003;21773;50.010;19.972;2023-02-15T04:40:36;38.40;32.40;25.00
35654;PMS1003;21773;50.010;19.972;2023-02-15T04:43:40;31.50;28.25;22.25
35654;PMS1003;21773;50.010;19.972;2023-02-15T04:46:43;31.60;29.40;23.00
35654;PMS1003;21773;50.010;19.972;2023-02-15T04:49:46;35.60;30.00;23.00
35654;PMS1003;21773;50.010;19.972;2023-02-15T04:52:50;30.60;27.00;22.40
35654;PMS1003;21773;50.010;19.972;2023-02-15T04:55:54;31.60;28.00;22.60
35654;PMS1003;21773;50.010;19.972;2023-02-15T04:58:57;29.20;27.80;22.40
35654;PMS1003;21773;50.010;19.972;2023-02-15T05:02:01;34.20;30.60;23.20
35654;PMS1003;21773;50.010;19.972;2023-02-15T05:05:05;31.50;27.50;22.00
35654;PMS1003;21773;50.010;19.972;2023-02-15T05:08:09;31.00;28.00;22.00
35654;PMS1003;21773;50.010;19.972;2023-02-15T05:11:13;28.00;26.20;20.00
35654;PMS1003;21773;50.010;19.972;2023-02-15T05:14:17;27.80;26.80;22.00
35654;PMS1003;21773;50.010;19.972;2023-02-15T05:17:20;30.80;27.00;21.20
35654;PMS1003;21773;50.010;19.972;2023-02-15T05:20:23;27.80;26.20;21.60
35654;PMS1003;21773;50.010;19.972;2023-02-15T05:23:27;31.00;29.00;22.00
35654;PMS1003;21773;50.010;19.972;2023-02-15T05:26:31;30.00;27.00;22.00
35654;PMS1003;21773;50.010;19.972;2023-02-15T05:29:52;31.50;28.50;22.00
35654;PMS1003;21773;50.010;19.972;2023-02-15T05:32:56;32.00;30.00;23.00
35654;PMS1003;21773;50.010;19.972;2023-02-15T05:35:59;28.60;27.00;21.00
35654;PMS1003;21773;50.010;19.972;2023-02-15T05:39:03;29.80;25.40;20.00
35654;PMS1003;21773;50.010;19.972;2023-02-15T05:42:08;29.60;27.00;22.00
35654;PMS1003;21773;50.010;19.972;2023-02-15T05:45:12;30.50;27.75;22.00
35654;PMS1003;21773;50.010;19.972;2023-02-15T05:48:15;29.80;29.00;22.00
35654;PMS1003;21773;50.010;19.972;2023-02-15T05:51:19;26.50;24.50;20.25
35654;PMS1003;21773;50.010;19.972;2023-02-15T05:54:23;26.80;26.00;21.00
35654;PMS1003;21773;50.010;19.972;2023-02-15T05:57:28;28.00;25.50;20.00
35654;PMS1003;21773;50.010;19.972;2023-02-15T06:00:31;29.20;28.00;22.00
35654;PMS1003;21773;50.010;19.972;2023-02-15T06:03:38;29.40;26.60;21.40
35654;PMS1003;21773;50.010;19.972;2023-02-15T06:06:42;27.80;25.80;20.80
35654;PMS1003;21773;50.010;19.972;2023-02-15T06:09:45;33.60;29.80;22.00
35654;PMS1003;21773;50.010;19.972;2023-02-15T06:12:50;32.00;29.67;22.00
35654;PMS1003;21773;50.010;19.972;2023-02-15T06:15:53;30.00;27.00;22.00
35654;PMS1003;21773;50.010;19.972;2023-02-15T06:18:56;30.80;27.40;22.00
35654;PMS1003;21773;50.010;19.972;2023-02-15T06:22:00;27.50;24.50;20.00
35654;PMS1003;21773;50.010;19.972;2023-02-15T06:25:04;28.25;26.25;20.00
35654;PMS1003;21773;50.010;19.972;2023-02-15T06:28:13;30.80;28.80;22.40
35654;PMS1003;21773;50.010;19.972;2023-02-15T06:31:16;33.40;28.40;23.00
35654;PMS1003;21773;50.010;19.972;2023-02-15T06:34:20;29.40;27.40;22.00
35654;PMS1003;21773;50.010;19.972;2023-02-15T06:37:23;35.60;31.20;23.60
35654;PMS1003;21773;50.010;19.972;2023-02-15T06:40:26;34.00;30.40;24.00
35654;PMS1003;21773;50.010;19.972;2023-02-15T06:43:31;29.00;27.40;21.20
35654;PMS1003;21773;50.010;19.972;2023-02-15T06:46:36;31.60;29.60;23.00
35654;PMS1003;21773;50.010;19.972;2023-02-15T06:49:39;33.00;29.40;23.00
35654;PMS1003;21773;50.010;19.972;2023-02-15T06:52:42;33.60;30.00;23.60
35654;PMS1003;21773;50.010;19.972;2023-02-15T06:55:46;33.00;30.00;23.00
35654;PMS1003;21773;50.010;19.972;2023-02-15T06:58:50;32.50;30.00;23.00
35654;PMS1003;21773;50.010;19.972;2023-02-15T07:01:54;31.60;28.60;23.00
35654;PMS1003;21773;50.010;19.972;2023-02-15T07:04:57;32.80;29.40;23.00
35654;PMS1003;21773;50.010;19.972;2023-02-15T07:08:01;26.80;24.40;20.00
35654;PMS1003;21773;50.010;19.972;2023-02-15T07:11:05;38.00;32.00;24.00
35654;PMS1003;21773;50.010;19.972;2023-02-15T07:14:28;36.25;32.00;24.25
35654;PMS1003;21773;50.010;19.972;2023-02-15T07:17:31;40.00;32.00;24.00
35654;PMS1003;21773;50.010;19.972;2023-02-15T07:20:37;32.00;30.00;24.00
35654;PMS1003;21773;50.010;19.972;2023-02-15T07:23:43;32.20;30.00;23.00
35654;PMS1003;21773;50.010;19.972;2023-02-15T07:26:46;26.75;25.75;20.50
35654;PMS1003;21773;50.010;19.972;2023-02-15T07:29:51;28.00;26.00;21.00
35654;PMS1003;21773;50.010;19.972;2023-02-15T07:32:54;24.75;23.75;20.00
35654;PMS1003;21773;50.010;19.972;2023-02-15T07:36:16;29.00;27.00;21.00
35654;PMS1003;21773;50.010;19.972;2023-02-15T07:39:19;25.40;23.00;20.00
35654;PMS1003;21773;50.010;19.972;2023-02-15T07:42:22;23.00;21.25;18.25
35654;PMS1003;21773;50.010;19.972;2023-02-15T07:45:27;27.00;25.00;20.20
35654;PMS1003;21773;50.010;19.972;2023-02-15T07:48:31;26.50;23.50;20.00
35654;PMS1003;21773;50.010;19.972;2023-02-15T07:51:35;24.00;21.00;17.00
35654;PMS1003;21773;50.010;19.972;2023-02-15T07:54:38;22.00;20.00;17.00
35654;PMS1003;21773;50.010;19.972;2023-02-15T07:57:42;19.60;18.60;16.40
35654;PMS1003;21773;50.010;19.972;2023-02-15T08:00:48;27.50;24.00;19.50
35654;PMS1003;21773;50.010;19.972;2023-02-15T08:04:03;26.60;23.40;19.00
35654;PMS1003;21773;50.010;19.972;2023-02-15T08:07:07;23.40;22.00;18.00
35654;PMS1003;21773;50.010;19.972;2023-02-15T08:10:10;26.40;22.40;19.40
35654;PMS1003;21773;50.010;19.972;2023-02-15T08:13:34;23.00;20.00;16.00
35654;PMS1003;21773;50.010;19.972;2023-02-15T08:16:58;24.25;22.25;19.00
35654;PMS1003;21773;50.010;19.972;2023-02-15T08:20:04;24.25;22.00;19.25
35654;PMS1003;21773;50.010;19.972;2023-02-15T08:23:09;24.75;22.75;19.00
35654;PMS1003;21773;50.010;19.972;2023-02-15T08:26:12;26.75;23.75;19.50
35654;PMS1003;21773;50.010;19.972;2023-02-15T08:29:17;23.40;22.00;19.00
35654;PMS1003;21773;50.010;19.972;2023-02-15T08:32:23;21.60;19.60;17.00
35654;PMS1003;21773;50.010;19.972;2023-02-15T08:35:26;22.00;20.00;16.50
35654;PMS1003;21773;50.010;19.972;2023-02-15T08:38:29;21.00;20.40;18.00
35654;PMS1003;21773;50.010;19.972;2023-02-15T08:41:34;24.00;23.40;20.00
35654;PMS1003;21773;50.010;19.972;2023-02-15T08:44:39;25.00;22.60;17.60
35654;PMS1003;21773;50.010;19.972;2023-02-15T08:47:44;23.50;23.00;19.00
35654;PMS1003;21773;50.010;19.972;2023-02-15T08:50:47;22.00;20.20;17.00
35654;PMS1003;21773;50.010;19.972;2023-02-15T08:53:51;24.00;22.00;18.40
35654;PMS1003;21773;50.010;19.972;2023-02-15T08:56:55;21.00;20.00;16.00
35654;PMS1003;21773;50.010;19.972;2023-02-15T08:59:59;23.40;21.00;18.00
35654;PMS1003;21773;50.010;19.972;2023-02-15T09:03:05;22.00;19.60;16.00
35654;PMS1003;21773;50.010;19.972;2023-02-15T09:06:08;19.20;19.00;16.00
35654;PMS1003;21773;50.010;19.972;2023-02-15T09:09:12;23.40;21.00;18.00
35654;PMS1003;21773;50.010;19.972;2023-02-15T09:12:16;22.40;20.40;18.00
35654;PMS1003;21773;50.010;19.972;2023-02-15T09:15:19;18.80;18.00;14.80
35654;PMS1003;21773;50.010;19.972;2023-02-15T09:18:24;22.60;20.00;16.20
35654;PMS1003;21773;50.010;19.972;2023-02-15T09:21:28;22.20;21.00;18.00
35654;PMS1003;21773;50.010;19.972;2023-02-15T09:24:31;20.60;20.00;17.00
35654;PMS1003;21773;50.010;19.972;2023-02-15T09:27:35;21.60;19.60;16.60
35654;PMS1003;21773;50.010;19.972;2023-02-15T09:30:40;22.00;21.00;16.00
35654;PMS1003;21773;50.010;19.972;2023-02-15T09:33:46;23.20;21.20;17.20
35654;PMS1003;21773;50.010;19.972;2023-02-15T09:36:50;21.00;20.00;17.00
35654;PMS1003;21773;50.010;19.972;2023-02-15T09:39:54;21.75;20.25;17.25
35654;PMS1003;21773;50.010;19.972;2023-02-15T09:43:04;20.00;19.20;16.80
35654;PMS1003;21773;50.010;19.972;2023-02-15T09:46:36;24.00;22.67;19.00
35654;PMS1003;21773;50.010;19.972;2023-02-15T09:49:54;24.50;21.50;19.00
35654;PMS1003;21773;50.010;19.972;2023-02-15T09:53:11;23.00;22.40;18.00
35654;PMS1003;21773;50.010;19.972;2023-02-15T09:56:28;25.40;24.00;20.00
35654;PMS1003;21773;50.010;19.972;2023-02-15T09:59:40;24.00;23.00;19.00
35654;PMS1003;21773;50.010;19.972;2023-02-15T10:03:02;23.00;22.00;19.00
35654;PMS1003;21773;50.010;19.972;2023-02-15T10:06:26;24.60;22.60;19.00
35654;PMS1003;21773;50.010;19.972;2023-02-15T10:09:40;25.60;23.80;20.00
35654;PMS1003;21773;50.010;19.972;2023-02-15T10:13:06;24.00;24.00;20.00
35654;PMS1003;21773;50.010;19.972;2023-02-15T10:16:29;26.60;25.00;20.00
35654;PMS1003;21773;50.010;19.972;2023-02-15T10:19:42;24.20;23.00;19.00
35654;PMS1003;21773;50.010;19.972;2023-02-15T10:23:05;29.00;26.80;21.20
35654;PMS1003;21773;50.010;19.972;2023-02-15T10:26:20;29.60;28.00;22.00
35654;PMS1003;21773;50.010;19.972;2023-02-15T10:29:27;29.00;28.00;21.50
35654;PMS1003;21773;50.010;19.972;2023-02-15T10:32:37;26.00;25.00;19.00
35654;PMS1003;21773;50.010;19.972;2023-02-15T10:35:51;26.40;26.40;20.40
35654;PMS1003;21773;50.010;19.972;2023-02-15T10:39:07;26.00;24.00;20.00
35654;PMS1003;21773;50.010;19.972;2023-02-15T10:42:21;32.60;29.60;22.00
35654;PMS1003;21773;50.010;19.972;2023-02-15T10:45:35;29.50;26.50;22.00
35654;PMS1003;21773;50.010;19.972;2023-02-15T10:52:21;31.60;29.60;22.00
35654;PMS1003;21773;50.010;19.972;2023-02-15T10:55:42;29.00;26.60;21.00
35654;PMS1003;21773;50.010;19.972;2023-02-15T10:58:59;29.00;28.00;22.00
35654;PMS1003;21773;50.010;19.972;2023-02-15T11:02:25;29.75;28.25;22.00
35654;PMS1003;21773;50.010;19.972;2023-02-15T11:05:40;29.00;28.00;20.40
35654;PMS1003;21773;50.010;19.972;2023-02-15T11:08:51;28.00;26.60;20.00
35654;PMS1003;21773;50.010;19.972;2023-02-15T11:11:59;30.60;28.40;22.00
35654;PMS1003;21773;50.010;19.972;2023-02-15T11:15:04;28.60;25.60;20.60
35654;PMS1003;21773;50.010;19.972;2023-02-15T11:18:19;27.75;26.00;20.00
35654;PMS1003;21773;50.010;19.972;2023-02-15T11:21:31;30.40;28.00;20.40
35654;PMS1003;21773;50.010;19.972;2023-02-15T11:24:41;30.00;28.00;21.00
35654;PMS1003;21773;50.010;19.972;2023-02-15T11:27:48;33.50;28.00;22.00
35654;PMS1003;21773;50.010;19.972;2023-02-15T11:30:53;30.75;28.75;22.00
35654;PMS1003;21773;50.010;19.972;2023-02-15T11:33:59;28.50;26.00;20.00
35654;PMS1003;21773;50.010;19.972;2023-02-15T11:37:15;29.00;28.00;22.00
35654;PMS1003;21773;50.010;19.972;2023-02-15T11:40:22;30.80;28.00;21.00
35654;PMS1003;21773;50.010;19.972;2023-02-15T11:43:32;32.00;26.00;21.00
35654;PMS1003;21773;50.010;19.972;2023-02-15T11:46:41;27.40;25.40;20.00
35654;PMS1003;21773;50.010;19.972;2023-02-15T11:49:44;31.00;29.00;21.00
35654;PMS1003;21773;50.010;19.972;2023-02-15T11:52:48;32.00;29.00;22.00
35654;PMS1003;21773;50.010;19.972;2023-02-15T11:55:52;29.75;27.00;21.00
35654;PMS1003;21773;50.010;19.972;2023-02-15T11:58:58;29.00;27.60;22.00
35654;PMS1003;21773;50.010;19.972;2023-02-15T12:02:10;32.00;29.00;21.50
35654;PMS1003;21773;50.010;19.972;2023-02-15T12:05:20;28.80;27.00;21.00
35654;PMS1003;21773;50.010;19.972;2023-02-15T12:08:26;29.00;26.75;20.00
35654;PMS1003;21773;50.010;19.972;2023-02-15T12:11:40;32.00;26.40;20.00
35654;PMS1003;21773;50.010;19.972;2023-02-15T12:14:47;28.60;26.00;20.40
35654;PMS1003;21773;50.010;19.972;2023-02-15T12:17:52;32.20;30.00;23.00
35654;PMS1003;21773;50.010;19.972;2023-02-15T12:20:57;29.00;27.00;20.00
35654;PMS1003;21773;50.010;19.972;2023-02-15T12:24:03;31.00;28.25;21.25
35654;PMS1003;21773;50.010;19.972;2023-02-15T12:27:17;32.20;29.80;22.40
35654;PMS1003;21773;50.010;19.972;2023-02-15T12:30:25;33.00;29.00;22.00
35654;PMS1003;21773;50.010;19.972;2023-02-15T12:33:35;35.40;30.00;21.60
35654;PMS1003;21773;50.010;19.972;2023-02-15T12:36:47;32.60;28.80;22.00
35654;PMS1003;21773;50.010;19.972;2023-02-15T12:39:56;32.60;29.00;22.00
35654;PMS1003;21773;50.010;19.972;2023-02-15T12:43:04;33.75;30.00;22.25
35654;PMS1003;21773;50.010;19.972;2023-02-15T12:46:28;35.40;30.40;22.40
35654;PMS1003;21773;50.010;19.972;2023-02-15T12:49:38;29.00;26.00;20.20
35654;PMS1003;21773;50.010;19.972;2023-02-15T12:52:48;31.00;28.40;21.00
35654;PMS1003;21773;50.010;19.972;2023-02-15T12:55:54;32.00;28.00;21.00
35654;PMS1003;21773;50.010;19.972;2023-02-15T12:59:04;33.60;29.00;21.40
35654;PMS1003;21773;50.010;19.972;2023-02-15T13:02:12;36.00;29.00;22.00
35654;PMS1003;21773;50.010;19.972;2023-02-15T13:05:25;33.00;28.80;22.00
35654;PMS1003;21773;50.010;19.972;2023-02-15T13:08:32;33.00;29.00;22.00
35654;PMS1003;21773;50.010;19.972;2023-02-15T13:11:38;35.00;30.00;23.00
35654;PMS1003;21773;50.010;19.972;2023-02-15T13:14:44;35.40;31.00;23.00
35654;PMS1003;21773;50.010;19.972;2023-02-15T13:17:50;32.40;28.00;22.00
35654;PMS1003;21773;50.010;19.972;2023-02-15T13:20:54;33.60;29.00;22.00
35654;PMS1003;21773;50.010;19.972;2023-02-15T13:24:00;31.00;27.80;20.80
35654;PMS1003;21773;50.010;19.972;2023-02-15T13:27:07;35.40;31.00;23.00
35654;PMS1003;21773;50.010;19.972;2023-02-15T13:30:20;37.25;30.75;22.50
35654;PMS1003;21773;50.010;19.972;2023-02-15T13:33:30;32.75;30.50;23.75
35654;PMS1003;21773;50.010;19.972;2023-02-15T13:36:37;34.00;30.00;22.00
35654;PMS1003;21773;50.010;19.972;2023-02-15T13:39:50;33.40;29.00;22.00
35654;PMS1003;21773;50.010;19.972;2023-02-15T13:43:01;34.00;28.00;23.00
35654;PMS1003;21773;50.010;19.972;2023-02-15T13:46:23;30.00;27.25;21.50
35654;PMS1003;21773;50.010;19.972;2023-02-15T13:49:50;31.20;28.60;22.00
35654;PMS1003;21773;50.010;19.972;2023-02-15T13:53:16;36.40;30.40;22.80
35654;PMS1003;21773;50.010;19.972;2023-02-15T13:56:34;32.50;29.00;22.00
35654;PMS1003;21773;50.010;19.972;2023-02-15T13:59:53;33.00;30.00;22.00
35654;PMS1003;21773;50.010;19.972;2023-02-15T14:03:32;37.80;29.80;22.00
35654;PMS1003;21773;50.010;19.972;2023-02-15T14:07:05;32.40;28.40;22.00
35654;PMS1003;21773;50.010;19.972;2023-02-15T14:10:22;33.40;30.00;23.00
35654;PMS1003;21773;50.010;19.972;2023-02-15T14:13:47;30.60;27.80;22.00
35654;PMS1003;21773;50.010;19.972;2023-02-15T14:17:06;35.50;30.00;23.00
35654;PMS1003;21773;50.010;19.972;2023-02-15T14:20:20;35.00;30.40;23.00
35654;PMS1003;21773;50.010;19.972;2023-02-15T14:23:32;35.40;30.00;23.00
35654;PMS1003;21773;50.010;19.972;2023-02-15T14:26:52;40.80;32.00;24.00
35654;PMS1003;21773;50.010;19.972;2023-02-15T14:30:09;34.00;30.00;24.00
35654;PMS1003;21773;50.010;19.972;2023-02-15T14:33:25;28.00;25.80;20.00
35654;PMS1003;21773;50.010;19.972;2023-02-15T14:36:37;30.80;29.00;22.00
35654;PMS1003;21773;50.010;19.972;2023-02-15T14:39:43;32.00;30.00;23.00
35654;PMS1003;21773;50.010;19.972;2023-02-15T14:43:14;29.00;26.75;22.00
35654;PMS1003;21773;50.010;19.972;2023-02-15T14:46:30;31.20;28.00;22.20
35654;PMS1003;21773;50.010;19.972;2023-02-15T14:49:39;35.60;30.00;22.00
35654;PMS1003;21773;50.010;19.972;2023-02-15T14:52:57;33.40;29.00;22.00
35654;PMS1003;21773;50.010;19.972;2023-02-15T14:56:23;37.60;32.00;23.00
35654;PMS1003;21773;50.010;19.972;2023-02-15T14:59:35;40.40;32.00;23.40
35654;PMS1003;21773;50.010;19.972;2023-02-15T15:02:48;36.00;31.20;23.20
35654;PMS1003;21773;50.010;19.972;2023-02-15T15:05:56;33.00;29.20;22.00
35654;PMS1003;21773;50.010;19.972;2023-02-15T15:09:10;37.00;32.00;24.00
35654;PMS1003;21773;50.010;19.972;2023-02-15T15:15:44;37.40;32.00;24.20
35654;PMS1003;21773;50.010;19.972;2023-02-15T15:18:49;32.00;29.50;22.00
35654;PMS1003;21773;50.010;19.972;2023-02-15T15:21:53;37.50;32.00;24.00
35654;PMS1003;21773;50.010;19.972;2023-02-15T15:24:58;33.00;28.60;22.00
35654;PMS1003;21773;50.010;19.972;2023-02-15T15:28:04;34.80;28.80;21.00
35654;PMS1003;21773;50.010;19.972;2023-02-15T15:31:09;37.25;32.50;25.00
35654;PMS1003;21773;50.010;19.972;2023-02-15T15:38:13;35.50;31.50;23.00
35654;PMS1003;21773;50.010;19.972;2023-02-15T15:41:35;34.00;30.00;23.00
35654;PMS1003;21773;50.010;19.972;2023-02-15T15:48:35;35.00;30.00;23.00
35654;PMS1003;21773;50.010;19.972;2023-02-15T15:51:41;38.60;31.60;23.60
35654;PMS1003;21773;50.010;19.972;2023-02-15T15:54:46;36.00;30.75;23.00
35654;PMS1003;21773;50.010;19.972;2023-02-15T15:57:55;38.00;32.00;24.00
35654;PMS1003;21773;50.010;19.972;2023-02-15T16:01:03;40.67;33.00;26.00
35654;PMS1003;21773;50.010;19.972;2023-02-15T16:04:13;37.00;30.20;23.00
35654;PMS1003;21773;50.010;19.972;2023-02-15T16:07:25;39.25;32.25;24.00
35654;PMS1003;21773;50.010;19.972;2023-02-15T16:10:29;43.80;34.40;26.00
35654;PMS1003;21773;50.010;19.972;2023-02-15T16:13:35;32.50;30.00;23.00
35654;PMS1003;21773;50.010;19.972;2023-02-15T16:16:40;34.50;30.00;22.25
35654;PMS1003;21773;50.010;19.972;2023-02-15T16:19:48;35.50;30.50;23.50
35654;PMS1003;21773;50.010;19.972;2023-02-15T16:22:55;38.40;31.00;23.80
35654;PMS1003;21773;50.010;19.972;2023-02-15T16:26:08;45.00;33.00;25.50
35654;PMS1003;21773;50.010;19.972;2023-02-15T16:29:18;41.00;33.00;25.00
35654;PMS1003;21773;50.010;19.972;2023-02-15T16:32:31;42.40;33.00;25.00
35654;PMS1003;21773;50.010;19.972;2023-02-15T16:35:39;38.25;32.00;24.00
35654;PMS1003;21773;50.010;19.972;2023-02-15T16:38:54;40.40;33.00;25.00
35654;PMS1003;21773;50.010;19.972;2023-02-15T16:42:10;43.00;36.00;26.00
35654;PMS1003;21773;50.010;19.972;2023-02-15T16:45:15;43.00;33.00;24.25
35654;PMS1003;21773;50.010;19.972;2023-02-15T16:48:23;44.80;35.40;27.80
35654;PMS1003;21773;50.010;19.972;2023-02-15T16:51:30;37.20;31.00;22.20
35654;PMS1003;21773;50.010;19.972;2023-02-15T16:54:36;43.00;35.50;25.50
35654;PMS1003;21773;50.010;19.972;2023-02-15T16:57:43;40.25;33.25;26.00
35654;PMS1003;21773;50.010;19.972;2023-02-15T17:00:47;41.75;35.00;27.00
35654;PMS1003;21773;50.010;19.972;2023-02-15T17:04:09;45.00;36.00;27.00
35654;PMS1003;21773;50.010;19.972;2023-02-15T17:07:16;43.60;34.60;26.00
35654;PMS1003;21773;50.010;19.972;2023-02-15T17:10:27;61.25;47.00;33.00
35654;PMS1003;21773;50.010;19.972;2023-02-15T17:13:33;57.20;44.00;33.00
35654;PMS1003;21773;50.010;19.972;2023-02-15T17:16:40;47.80;37.60;27.60
35654;PMS1003;21773;50.010;19.972;2023-02-15T17:19:52;44.25;35.25;25.25
35654;PMS1003;21773;50.010;19.972;2023-02-15T17:22:57;47.60;37.40;27.60
35654;PMS1003;21773;50.010;19.972;2023-02-15T17:26:10;45.00;34.20;26.20
35654;PMS1003;21773;50.010;19.972;2023-02-15T17:29:19;46.40;35.00;27.00
35654;PMS1003;21773;50.010;19.972;2023-02-15T17:32:30;47.40;37.00;27.00
35654;PMS1003;21773;50.010;19.972;2023-02-15T17:35:36;48.20;39.00;28.00
35654;PMS1003;21773;50.010;19.972;2023-02-15T17:38:42;47.40;38.00;28.00
35654;PMS1003;21773;50.010;19.972;2023-02-15T17:42:03;49.60;38.80;28.00
35654;PMS1003;21773;50.010;19.972;2023-02-15T17:45:07;45.20;35.20;25.20